Time;durP1;ratioP1;P1;durP2;ratioP2;P2;SDS_P1;SDS_P2;PMS_P1;PMS_P2;Temp;Humidity;BMP_temperature;BMP_pressure;BME280_temperature;BME280_humidity;BME280_pressure;Samples;Min_cycle;Max_cycle;Signal;HPM_P1;HPM_P2
2023/08/03 00:01:07;;;;;;;;;2.00;1.00;;;;;19.83;60.69;99555.75;4999142;28;45509;-74
2023/08/03 00:03:32;;;;;;;;;2.33;1.33;;;;;19.87;60.72;99565.25;5013291;28;47052;-76
2023/08/03 00:05:58;;;;;;;;;2.33;2.33;;;;;19.69;60.61;99543.19;4998573;28;45420;-69
2023/08/03 00:08:23;;;;;;;;;2.33;2.33;;;;;19.86;60.68;99577.69;4998627;28;45391;-72
2023/08/03 00:10:49;;;;;;;;;5.67;1.67;;;;;19.86;60.45;99579.47;4998513;28;45324;-71
2023/08/03 00:13:15;;;;;;;;;3.00;3.00;;;;;19.74;60.12;99551.78;4998359;28;45495;-75
2023/08/03 00:15:41;;;;;;;;;4.00;2.00;;;;;19.77;60.60;99559.59;4997459;28;45477;-73
2023/08/03 00:18:06;;;;;;;;;3.33;1.67;;;;;19.84;60.37;99574.25;4988230;28;45367;-75
2023/08/03 00:20:32;;;;;;;;;3.00;3.00;;;;;19.83;60.33;99584.97;4998608;28;45450;-76
2023/08/03 00:22:57;;;;;;;;;3.33;2.00;;;;;19.73;59.92;99559.84;4990712;28;46209;-71
2023/08/03 00:25:35;;;;;;;;;4.00;2.33;;;;;19.87;59.82;99579.41;4991367;28;45636;-76
2023/08/03 00:28:00;;;;;;;;;7.67;2.33;;;;;19.89;59.78;99584.66;4998992;28;45544;-73
2023/08/03 00:30:26;;;;;;;;;4.33;2.33;;;;;19.77;59.92;99572.88;4983092;28;45807;-77
2023/08/03 00:32:51;;;;;;;;;7.00;1.00;;;;;19.88;59.54;99583.78;4980176;28;45717;-76
2023/08/03 00:35:17;;;;;;;;;1.00;1.00;;;;;19.84;59.47;99576.91;4981045;28;45380;-76
2023/08/03 00:37:42;;;;;;;;;3.67;2.00;;;;;19.86;59.23;99582.13;4980918;28;45412;-76
2023/08/03 00:40:08;;;;;;;;;1.67;1.00;;;;;19.84;59.45;99584.03;4980564;28;45370;-70
2023/08/03 00:42:43;;;;;;;;;2.00;2.00;;;;;19.65;59.34;99544.31;4984693;28;45479;-75
2023/08/03 00:45:11;;;;;;;;;3.67;3.00;;;;;19.69;59.33;99559.16;4996839;28;45587;-76
2023/08/03 00:47:38;;;;;;;;;6.00;2.00;;;;;19.66;59.26;99552.16;4980614;28;45568;-77
2023/08/03 00:50:04;;;;;;;;;5.67;4.00;;;;;19.64;59.36;99553.19;4979958;28;45992;-76
2023/08/03 00:52:32;;;;;;;;;5.00;2.00;;;;;19.69;59.50;99559.16;4987005;28;45632;-75
2023/08/03 00:54:58;;;;;;;;;3.00;3.00;;;;;19.66;59.74;99567.25;4983419;28;45361;-76
2023/08/03 00:57:24;;;;;;;;;2.67;2.67;;;;;19.74;59.39;99580.16;4984115;28;46188;-73
2023/08/03 00:59:49;;;;;;;;;2.00;2.00;;;;;19.67;59.32;99567.19;4979607;28;45488;-75
2023/08/03 01:02:15;;;;;;;;;3.00;1.67;;;;;19.74;59.10;99581.00;4979992;28;46019;-75
2023/08/03 01:04:40;;;;;;;;;5.67;2.33;;;;;19.64;59.41;99577.09;4986369;28;45447;-77
2023/08/03 01:07:06;;;;;;;;;3.00;3.00;;;;;19.72;59.38;99584.69;4979973;28;45356;-76
2023/08/03 01:09:32;;;;;;;;;5.33;3.33;;;;;19.64;59.13;99571.78;4981559;28;45957;-76
2023/08/03 01:11:57;;;;;;;;;3.00;1.00;;;;;19.73;59.00;99589.06;4988566;28;45429;-75
2023/08/03 01:14:23;;;;;;;;;4.00;2.67;;;;;19.69;59.32;99591.91;5004422;28;45355;-76
2023/08/03 01:16:49;;;;;;;;;3.67;1.00;;;;;19.58;59.32;99580.09;4991031;28;45427;-74
2023/08/03 01:19:15;;;;;;;;;4.00;1.00;;;;;19.67;59.43;99600.84;4999806;28;45273;-75
2023/08/03 01:21:43;;;;;;;;;4.67;2.00;;;;;19.65;60.44;99594.78;4981084;28;45948;-74
2023/08/03 01:24:09;;;;;;;;;2.67;1.33;;;;;19.66;62.10;99607.09;4996078;28;45368;-76
2023/08/03 01:26:35;;;;;;;;;2.00;1.67;;;;;19.61;62.45;99607.34;4982224;28;45487;-76
2023/08/03 01:29:00;;;;;;;;;3.67;1.67;;;;;19.43;63.60;99611.84;4998320;28;45398;-77
2023/08/03 01:31:27;;;;;;;;;4.00;2.00;;;;;19.41;63.83;99621.69;4997826;28;46521;-76
2023/08/03 01:33:53;;;;;;;;;1.67;1.00;;;;;19.41;64.76;99634.97;4997462;28;45272;-75
2023/08/03 01:36:18;;;;;;;;;1.67;1.00;;;;;19.28;65.03;99615.28;4998262;28;45495;-76
2023/08/03 01:39:07;;;;;;;;;2.00;2.00;;;;;19.31;65.83;99643.47;4997523;28;45331;-76
2023/08/03 01:41:36;;;;;;;;;2.33;1.00;;;;;19.28;66.22;99648.00;4996889;28;46692;-74
2023/08/03 01:44:21;;;;;;;;;2.00;1.67;;;;;18.81;66.63;99582.25;5009725;28;45550;-76
2023/08/03 01:46:47;;;;;;;;;3.67;3.00;;;;;18.97;67.23;99616.84;4997438;28;45635;-76
2023/08/03 01:49:13;;;;;;;;;3.00;1.00;;;;;19.04;67.79;99647.44;4998432;28;45401;-75
2023/08/03 01:51:40;;;;;;;;;3.33;2.00;;;;;18.87;67.90;99655.41;4997114;28;45568;-75
2023/08/03 01:54:06;;;;;;;;;1.67;1.67;;;;;18.75;68.67;99629.44;4997541;28;45344;-75
2023/08/03 01:56:31;;;;;;;;;2.00;2.00;;;;;18.79;68.67;99645.19;4997475;28;45288;-74
2023/08/03 01:59:03;;;;;;;;;4.33;2.00;;;;;18.89;68.27;99650.88;4997492;28;45472;-73
2023/08/03 02:01:28;;;;;;;;;1.00;0.33;;;;;18.77;68.45;99639.09;4996676;28;45535;-71
2023/08/03 02:04:00;;;;;;;;;1.33;1.33;;;;;18.76;68.63;99647.97;4998057;28;45494;-76
2023/08/03 02:06:26;;;;;;;;;4.67;1.67;;;;;18.88;68.54;99659.75;4998557;28;45418;-75
2023/08/03 02:08:52;;;;;;;;;4.00;2.00;;;;;18.86;68.37;99677.53;4998111;28;45329;-75
2023/08/03 02:11:17;;;;;;;;;1.00;1.00;;;;;18.67;69.02;99642.22;4997762;28;46363;-72
2023/08/03 02:13:43;;;;;;;;;2.00;2.00;;;;;18.83;69.39;99677.69;4997494;28;45823;-74
2023/08/03 02:16:10;;;;;;;;;1.67;1.67;;;;;18.78;68.98;99661.16;4997233;28;45460;-74
2023/08/03 02:18:39;;;;;;;;;2.00;2.00;;;;;18.79;69.32;99674.34;4996704;28;45645;-76
2023/08/03 02:21:06;;;;;;;;;2.33;0.33;;;;;18.81;69.54;99682.22;4997639;28;45500;-74
2023/08/03 02:23:32;;;;;;;;;2.00;2.00;;;;;18.73;69.08;99671.97;4991502;28;45552;-75
2023/08/03 02:25:59;;;;;;;;;2.00;2.00;;;;;18.86;69.13;99685.50;4996872;28;45673;-76
2023/08/03 02:28:24;;;;;;;;;3.67;2.00;;;;;18.68;69.14;99668.66;4995892;28;45523;-75
2023/08/03 02:30:50;;;;;;;;;0.67;0.67;;;;;18.74;69.64;99694.88;4997054;28;45993;-74
2023/08/03 02:33:15;;;;;;;;;1.00;1.00;;;;;18.65;69.67;99677.63;4991331;28;45432;-72
2023/08/03 02:35:41;;;;;;;;;1.33;1.33;;;;;18.72;70.18;99695.88;4995100;28;45585;-74
2023/08/03 02:38:07;;;;;;;;;1.00;1.00;;;;;18.69;70.69;99693.38;4996582;28;45344;-72
2023/08/03 02:40:39;;;;;;;;;6.00;1.33;;;;;18.72;70.39;99701.19;4996135;28;46098;-74
2023/08/03 02:43:04;;;;;;;;;2.67;1.00;;;;;18.50;70.22;99649.19;4998197;28;45422;-72
2023/08/03 02:45:30;;;;;;;;;1.00;1.00;;;;;18.83;71.08;99693.63;4995678;28;45557;-73
2023/08/03 02:47:56;;;;;;;;;8.67;8.67;;;;;18.83;70.36;99696.28;4995717;28;45361;-75
2023/08/03 02:50:21;;;;;;;;;4.33;3.00;;;;;18.77;69.94;99678.88;4996469;28;46450;-71
2023/08/03 02:52:47;;;;;;;;;4.33;2.00;;;;;18.92;70.90;99706.44;4999313;28;45748;-68
2023/08/03 02:55:17;;;;;;;;;4.33;2.00;;;;;18.80;70.42;99685.81;4999854;28;45561;-72
2023/08/03 02:57:43;;;;;;;;;1.33;1.33;;;;;18.83;70.24;99686.50;4998607;28;45952;-72
2023/08/03 03:00:11;;;;;;;;;3.33;1.67;;;;;18.99;70.27;99705.19;4999085;28;45407;-75
2023/08/03 03:02:36;;;;;;;;;3.00;1.00;;;;;19.02;70.44;99707.69;5000042;28;45308;-77
2023/08/03 03:05:03;;;;;;;;;1.00;1.00;;;;;18.90;70.55;99708.31;5000781;28;45574;-73
2023/08/03 03:07:34;;;;;;;;;5.33;1.00;;;;;18.50;71.35;99657.16;4999958;28;45502;-72
2023/08/03 03:09:59;;;;;;;;;1.67;1.33;;;;;18.84;71.52;99708.63;4998869;28;45571;-72
2023/08/03 03:12:25;;;;;;;;;0.67;0.67;;;;;18.84;71.45;99713.94;5014143;28;45316;-70
2023/08/03 03:14:51;;;;;;;;;1.00;1.00;;;;;18.81;71.54;99719.34;4997792;28;45510;-72
2023/08/03 03:17:16;;;;;;;;;3.00;1.00;;;;;18.83;71.67;99728.09;4999335;28;45276;-72
2023/08/03 03:19:58;;;;;;;;;2.00;1.00;;;;;18.84;71.53;99724.53;4998763;28;45511;-72
2023/08/03 03:22:24;;;;;;;;;1.00;1.00;;;;;18.65;72.33;99690.91;4998674;28;45669;-73
2023/08/03 03:24:50;;;;;;;;;3.00;2.00;;;;;18.81;71.55;99722.88;4997554;28;45454;-73
2023/08/03 03:27:28;;;;;;;;;5.00;1.00;;;;;18.67;71.33;99700.56;4999363;28;45526;-71
2023/08/03 03:29:55;;;;;;;;;0.50;0.50;;;;;18.59;71.42;99687.69;4999595;28;45411;-74
2023/08/03 03:32:21;;;;;;;;;2.67;1.67;;;;;18.82;71.19;99731.69;4986831;28;45493;-72
2023/08/03 03:34:47;;;;;;;;;1.00;0.00;;;;;18.73;71.69;99714.38;5004122;28;45376;-71
2023/08/03 03:37:12;;;;;;;;;3.00;1.67;;;;;18.76;71.51;99724.88;4984895;28;45527;-71
2023/08/03 03:39:39;;;;;;;;;1.33;1.33;;;;;18.84;71.25;99735.16;4984119;28;45428;-69
2023/08/03 03:42:05;;;;;;;;;1.33;1.00;;;;;18.74;71.11;99734.66;4995877;28;45494;-69
2023/08/03 03:44:30;;;;;;;;;2.00;2.00;;;;;18.79;71.62;99738.03;4997440;28;45341;-73
2023/08/03 03:46:56;;;;;;;;;1.33;1.33;;;;;18.70;71.88;99721.63;4998662;28;45288;-71
2023/08/03 03:49:21;;;;;;;;;2.00;1.00;;;;;18.75;71.58;99730.25;4999093;28;45377;-73
2023/08/03 03:51:47;;;;;;;;;3.00;1.00;;;;;18.66;71.24;99726.22;4997918;28;45544;-70
2023/08/03 03:54:17;;;;;;;;;1.33;1.00;;;;;18.68;71.34;99724.38;4997579;28;45590;-73
2023/08/03 03:56:43;;;;;;;;;1.67;1.67;;;;;18.81;71.11;99757.34;4983725;28;45370;-73
2023/08/03 03:59:08;;;;;;;;;2.67;1.00;;;;;18.83;70.87;99758.13;4997445;28;45491;-71
2023/08/03 04:01:34;;;;;;;;;2.67;1.00;;;;;18.80;71.56;99754.78;4995483;28;45375;-73
2023/08/03 04:04:21;;;;;;;;;1.00;1.00;;;;;18.81;71.20;99757.34;4996230;28;45346;-73
2023/08/03 04:06:48;;;;;;;;;1.00;1.00;;;;;18.82;71.10;99744.97;4998549;28;45498;-72
2023/08/03 04:09:14;;;;;;;;;1.00;0.67;;;;;18.82;71.66;99764.38;4997010;28;45606;-71
2023/08/03 04:11:39;;;;;;;;;4.00;2.00;;;;;18.79;71.35;99753.06;4987936;28;45425;-72
2023/08/03 04:14:05;;;;;;;;;1.00;1.00;;;;;18.79;71.34;99764.53;4989871;28;45474;-71
2023/08/03 04:16:30;;;;;;;;;1.67;1.67;;;;;18.75;71.64;99765.59;4997663;28;45516;-71
2023/08/03 04:19:02;;;;;;;;;1.00;1.00;;;;;18.79;71.50;99771.63;4997466;28;45495;-70
2023/08/03 04:21:28;;;;;;;;;3.33;2.00;;;;;18.78;71.88;99765.47;4992895;28;45463;-71
2023/08/03 04:23:54;;;;;;;;;3.00;2.00;;;;;18.81;71.05;99760.00;4990902;28;45830;-69
2023/08/03 04:26:19;;;;;;;;;2.67;1.00;;;;;18.82;71.64;99775.00;4988387;28;45631;-71
2023/08/03 04:28:45;;;;;;;;;2.67;1.67;;;;;18.82;71.47;99768.84;4997379;28;46175;-71
2023/08/03 04:31:10;;;;;;;;;1.67;1.00;;;;;18.63;71.22;99737.84;4992492;28;45551;-72
2023/08/03 04:33:36;;;;;;;;;5.00;1.00;;;;;18.83;71.17;99766.09;4989245;28;45499;-72
2023/08/03 04:36:01;;;;;;;;;2.00;2.00;;;;;18.72;71.15;99756.91;4993430;28;45439;-71
2023/08/03 04:38:27;;;;;;;;;3.00;1.00;;;;;18.77;71.20;99769.06;4987165;28;45833;-69
2023/08/03 04:41:05;;;;;;;;;2.00;2.00;;;;;18.62;71.09;99751.16;4992206;28;45291;-72
2023/08/03 04:43:33;;;;;;;;;4.33;1.00;;;;;18.78;71.27;99767.25;4996080;28;45619;-71
2023/08/03 04:46:05;;;;;;;;;2.67;2.00;;;;;18.52;71.34;99726.88;4992175;28;45533;-72
2023/08/03 04:48:30;;;;;;;;;2.33;1.67;;;;;18.71;71.50;99760.50;4986227;28;46209;-72
2023/08/03 04:50:56;;;;;;;;;3.33;2.33;;;;;18.69;70.93;99768.50;4990582;28;45516;-72
2023/08/03 04:53:21;;;;;;;;;2.67;2.67;;;;;18.69;71.30;99771.16;4997634;28;46120;-71
2023/08/03 04:55:47;;;;;;;;;1.33;0.33;;;;;18.74;71.26;99771.81;4997382;28;45503;-71
2023/08/03 04:58:12;;;;;;;;;3.00;1.00;;;;;18.72;70.84;99765.75;4994393;28;46201;-70
2023/08/03 05:00:38;;;;;;;;;10.33;4.00;;;;;18.80;71.14;99787.47;4992277;28;45510;-71
2023/08/03 05:03:03;;;;;;;;;4.00;2.00;;;;;18.82;71.03;99779.47;4995781;28;45428;-71
2023/08/03 05:05:29;;;;;;;;;3.33;1.67;;;;;18.81;71.17;99783.03;4997363;28;45407;-71
2023/08/03 05:08:18;;;;;;;;;2.00;2.00;;;;;18.73;71.49;99767.44;4995261;28;45437;-71
2023/08/03 05:10:44;;;;;;;;;1.67;1.67;;;;;18.82;71.16;99790.06;4995511;28;45294;-71
2023/08/03 05:13:09;;;;;;;;;2.67;1.00;;;;;18.61;71.33;99765.38;4998165;28;45395;-68
2023/08/03 05:15:35;;;;;;;;;2.00;1.00;;;;;18.68;71.35;99779.22;4996484;28;45331;-69
2023/08/03 05:18:04;;;;;;;;;2.00;2.00;;;;;18.77;71.17;99797.34;4996568;28;45744;-70
2023/08/03 05:20:30;;;;;;;;;3.00;2.00;;;;;18.69;71.39;99796.84;4994283;28;45454;-70
2023/08/03 05:22:55;;;;;;;;;2.00;2.00;;;;;18.72;71.44;99786.97;4992368;28;45451;-70
2023/08/03 05:25:21;;;;;;;;;1.00;1.00;;;;;18.77;71.10;99795.59;4996812;28;45510;-70
2023/08/03 05:27:47;;;;;;;;;1.00;1.00;;;;;18.72;71.71;99804.63;4998081;28;46496;-73
2023/08/03 05:30:12;;;;;;;;;2.67;1.00;;;;;18.68;71.76;99805.72;4997359;28;45611;-70
2023/08/03 05:32:38;;;;;;;;;2.00;2.00;;;;;18.50;71.83;99784.41;4988582;28;45327;-71
2023/08/03 05:35:13;;;;;;;;;2.33;2.00;;;;;18.65;71.90;99804.09;4997031;28;45549;-72
2023/08/03 05:37:39;;;;;;;;;2.67;2.00;;;;;18.65;72.28;99793.47;4995439;28;47936;-68
2023/08/03 05:40:05;;;;;;;;;3.00;2.33;;;;;18.74;71.54;99808.09;4996713;28;45528;-68
2023/08/03 05:42:40;;;;;;;;;4.67;1.00;;;;;18.79;71.94;99806.09;4994768;28;45298;-69
2023/08/03 05:45:12;;;;;;;;;2.67;1.33;;;;;18.81;71.41;99810.41;4985744;28;45329;-71
2023/08/03 05:47:50;;;;;;;;;;;;;;;;;;;;;
2023/08/03 05:50:18;;;;;;;;;2.67;1.00;;;;;18.85;71.50;99822.59;4995369;28;72900;-71
2023/08/03 05:52:44;;;;;;;;;1.00;1.00;;;;;18.90;71.14;99819.75;4996183;28;45526;-68
2023/08/03 05:55:12;;;;;;;;;2.33;1.00;;;;;18.80;71.24;99807.84;4997077;28;45391;-69
2023/08/03 05:57:45;;;;;;;;;6.00;3.00;;;;;18.90;70.92;99814.44;4996546;28;46058;-71
2023/08/03 06:00:21;;;;;;;;;2.33;2.33;;;;;18.88;70.46;99805.69;4996732;28;45553;-72
2023/08/03 06:02:47;;;;;;;;;2.33;1.00;;;;;19.00;70.34;99831.63;4996414;28;45404;-69
2023/08/03 06:05:50;;;;;;;;;4.33;2.67;;;;;19.00;70.75;99836.94;4996426;28;45823;-68
2023/08/03 06:08:24;;;;;;;;;2.00;2.00;;;;;18.92;70.23;99819.69;4996004;28;45457;-72
2023/08/03 06:10:52;;;;;;;;;3.00;2.00;;;;;18.91;70.26;99820.59;4994839;28;45372;-71
2023/08/03 06:13:26;;;;;;;;;2.00;1.00;;;;;18.88;70.31;99826.06;4995689;28;45697;-73
2023/08/03 06:15:52;;;;;;;;;7.67;2.33;;;;;18.83;70.28;99810.34;4996649;28;45510;-70
2023/08/03 06:18:19;;;;;;;;;5.00;3.33;;;;;19.05;70.02;99842.91;5011055;28;46650;-73
2023/08/03 06:20:50;;;;;;;;;2.00;2.00;;;;;19.00;69.81;99844.91;4995191;28;45404;-69
2023/08/03 06:23:18;;;;;;;;;4.33;2.00;;;;;19.06;69.96;99844.63;4994234;28;45568;-72
2023/08/03 06:26:03;;;;;;;;;4.33;2.33;;;;;19.03;69.85;99836.81;4996788;28;45478;-73
2023/08/03 06:28:28;;;;;;;;;1.33;1.33;;;;;19.01;69.66;99845.78;4997991;28;47430;-73
2023/08/03 06:30:54;;;;;;;;;2.00;2.00;;;;;19.06;69.50;99852.59;4999616;28;45980;-74
2023/08/03 06:33:23;;;;;;;;;3.00;3.00;;;;;18.92;69.76;99819.69;4998936;28;45500;-74
2023/08/03 06:35:52;;;;;;;;;3.67;2.00;;;;;19.09;69.59;99858.69;4999586;28;45558;-74
2023/08/03 06:38:21;;;;;;;;;4.00;2.00;;;;;19.01;69.52;99849.28;4999281;28;46150;-74
2023/08/03 06:40:48;;;;;;;;;2.67;2.00;;;;;19.10;69.62;99871.91;4999551;28;45272;-72
2023/08/03 06:43:15;;;;;;;;;2.00;2.00;;;;;18.98;69.27;99844.13;4998231;28;45305;-70
2023/08/03 06:45:42;;;;;;;;;4.00;2.33;;;;;19.03;69.37;99855.38;5000010;28;45642;-72
2023/08/03 06:48:08;;;;;;;;;2.00;2.00;;;;;18.98;69.74;99864.47;4999675;28;45634;-72
2023/08/03 06:50:34;;;;;;;;;2.67;2.00;;;;;19.04;69.46;99874.81;4998940;28;45879;-71
2023/08/03 06:53:02;;;;;;;;;4.33;2.67;;;;;19.10;69.38;99881.63;4998900;28;45391;-73
2023/08/03 06:55:29;;;;;;;;;4.00;2.33;;;;;18.91;68.78;99847.13;4998170;28;45481;-69
2023/08/03 06:57:58;;;;;;;;;2.33;2.33;;;;;19.10;69.40;99893.13;4999262;28;45557;-68
2023/08/03 07:00:24;;;;;;;;;4.00;2.00;;;;;18.94;69.00;99870.88;4998727;28;45574;-68
2023/08/03 07:02:50;;;;;;;;;5.67;2.33;;;;;19.12;69.52;99899.19;4999510;28;45486;-72
2023/08/03 07:05:16;;;;;;;;;4.67;2.33;;;;;18.96;69.30;99864.56;5000984;28;45649;-69
2023/08/03 07:07:42;;;;;;;;;2.67;2.33;;;;;19.20;69.24;99899.72;5000106;28;45474;-73
2023/08/03 07:10:07;;;;;;;;;3.00;2.00;;;;;19.19;68.95;99895.31;5000014;28;45533;-67
2023/08/03 07:12:37;;;;;;;;;3.67;2.33;;;;;19.09;68.76;99874.59;4999503;28;45589;-66
2023/08/03 07:15:05;;;;;;;;;3.67;2.00;;;;;19.06;68.32;99868.50;5001881;28;45514;-68
2023/08/03 07:17:32;;;;;;;;;2.67;2.33;;;;;19.36;69.91;99906.94;5006514;28;47682;-67
2023/08/03 07:19:57;;;;;;;;;2.33;2.00;;;;;19.43;69.31;99906.59;4995654;28;45436;-69
2023/08/03 07:22:24;;;;;;;;;3.00;2.67;;;;;19.51;69.30;99918.66;4996565;28;45643;-80
2023/08/03 07:24:50;;;;;;;;;2.33;2.33;;;;;19.44;68.93;99900.34;4997680;28;45481;-78
2023/08/03 07:27:16;;;;;;;;;2.33;2.00;;;;;19.32;67.79;99871.72;4998027;28;45533;-78
2023/08/03 07:29:42;;;;;;;;;3.00;3.00;;;;;19.51;67.84;99890.28;4996970;28;45431;-75
2023/08/03 07:32:09;;;;;;;;;3.33;2.00;;;;;19.64;67.94;99902.03;4997240;28;45384;-77
2023/08/03 07:34:35;;;;;;;;;2.00;2.00;;;;;19.75;67.69;99928.09;4997167;28;45438;-79
2023/08/03 07:37:01;;;;;;;;;5.67;3.00;;;;;19.82;67.91;99937.50;4995970;28;45930;-73
2023/08/03 07:39:27;;;;;;;;;3.33;1.67;;;;;19.82;68.69;99941.97;4997002;28;45380;-75
2023/08/03 07:41:53;;;;;;;;;5.33;2.00;;;;;19.88;68.06;99941.66;4997798;28;45424;-73
2023/08/03 07:44:19;;;;;;;;;3.33;2.00;;;;;19.94;68.23;99936.03;4998556;28;45534;-74
2023/08/03 07:46:45;;;;;;;;;3.67;3.33;;;;;19.96;68.27;99939.47;4997310;28;45603;-75
2023/08/03 07:49:11;;;;;;;;;3.67;3.00;;;;;20.06;67.96;99951.38;4995812;28;45883;-75
2023/08/03 07:51:37;;;;;;;;;2.00;2.00;;;;;20.09;67.67;99945.88;4997088;28;45534;-72
2023/08/03 07:54:02;;;;;;;;;6.00;4.00;;;;;19.88;67.64;99901.78;4996884;28;45532;-73
2023/08/03 07:56:29;;;;;;;;;2.67;2.00;;;;;20.01;67.17;99921.50;4992184;28;45513;-71
2023/08/03 07:58:55;;;;;;;;;3.67;2.33;;;;;20.18;67.20;99963.19;4988443;28;45788;-72
2023/08/03 08:01:21;;;;;;;;;2.00;2.00;;;;;20.12;67.13;99937.78;4995485;28;45585;-73
2023/08/03 08:03:47;;;;;;;;;2.00;1.67;;;;;20.20;67.02;99966.63;4995435;28;45839;-73
2023/08/03 08:06:16;;;;;;;;;5.67;3.67;;;;;20.25;66.38;99958.44;4996626;28;45609;-73
2023/08/03 08:08:42;;;;;;;;;3.67;2.00;;;;;20.10;65.85;99946.78;4997447;28;45365;-73
2023/08/03 08:11:08;;;;;;;;;3.00;2.67;;;;;20.20;66.51;99963.13;4998184;28;45488;-75
2023/08/03 08:13:34;;;;;;;;;4.00;2.67;;;;;20.17;65.39;99969.47;4998368;28;45397;-67
2023/08/03 08:16:01;;;;;;;;;2.00;1.67;;;;;20.01;65.97;99950.75;4996316;28;46109;-74
2023/08/03 08:18:27;;;;;;;;;4.00;2.33;;;;;20.01;66.06;99971.16;4996571;28;45450;-76
2023/08/03 08:20:58;;;;;;;;;2.33;2.33;;;;;20.02;66.40;99978.19;4997171;28;45567;-67
2023/08/03 08:23:23;;;;;;;;;2.33;2.33;;;;;19.99;66.13;99991.63;4997879;28;45335;-75
2023/08/03 08:25:49;;;;;;;;;2.67;2.33;;;;;19.84;66.68;99975.50;5011728;28;47198;-74
2023/08/03 08:28:14;;;;;;;;;2.00;2.00;;;;;19.84;66.61;99978.16;4998160;28;45318;-80
2023/08/03 08:30:40;;;;;;;;;2.33;2.00;;;;;19.79;66.83;99980.16;4997646;28;45427;-79
2023/08/03 08:33:06;;;;;;;;;2.67;2.33;;;;;19.83;67.34;99989.69;5011967;28;45303;-83
2023/08/03 08:35:31;;;;;;;;;3.67;3.00;;;;;19.86;66.96;99996.66;4995957;28;45853;-77
2023/08/03 08:37:59;;;;;;;;;2.00;2.00;;;;;19.74;67.35;99971.53;4996717;28;45913;-75
2023/08/03 08:40:27;;;;;;;;;4.67;3.00;;;;;19.83;66.79;99986.19;4997571;28;46209;-79
2023/08/03 08:42:55;;;;;;;;;6.00;1.67;;;;;19.84;66.54;100006.53;4996230;28;45605;-71
2023/08/03 08:45:21;;;;;;;;;5.00;2.33;;;;;19.81;67.17;100001.34;4996520;28;45529;-71
2023/08/03 08:47:47;;;;;;;;;5.33;3.00;;;;;19.81;66.83;100010.19;4994447;28;45701;-71
2023/08/03 08:50:13;;;;;;;;;4.00;2.00;;;;;19.87;66.87;100019.66;4995379;28;45501;-72
2023/08/03 08:52:44;;;;;;;;;6.33;1.67;;;;;19.85;68.63;100011.75;4995431;28;45724;-71
2023/08/03 08:55:17;;;;;;;;;4.00;2.00;;;;;19.85;67.32;100006.44;4994109;28;46746;-74
2023/08/03 08:57:42;;;;;;;;;3.00;3.00;;;;;20.05;67.68;100020.53;4995363;28;45337;-70
2023/08/03 09:00:08;;;;;;;;;4.67;3.67;;;;;20.18;67.63;100023.50;4994608;28;45619;-64
2023/08/03 09:02:35;;;;;;;;;6.67;3.00;;;;;20.30;66.80;100026.38;4995253;28;45470;-68
2023/08/03 09:05:22;;;;;;;;;3.33;3.33;;;;;20.38;66.82;100018.03;4993740;28;47073;-71
2023/08/03 09:08:01;;;;;;;;;4.67;2.67;;;;;20.41;65.60;100011.72;4995943;28;45367;-67
2023/08/03 09:10:27;;;;;;;;;3.67;2.00;;;;;20.59;66.01;100040.06;4994304;28;45756;-71
2023/08/03 09:12:54;;;;;;;;;4.00;1.67;;;;;20.56;65.76;100032.25;4994201;28;45529;-70
2023/08/03 09:15:36;;;;;;;;;2.00;2.00;;;;;20.68;65.50;100036.94;4996497;28;45473;-67
2023/08/03 09:18:05;;;;;;;;;2.67;2.00;;;;;20.75;64.84;100034.81;4995102;28;45474;-67
2023/08/03 09:20:31;;;;;;;;;2.00;2.00;;;;;20.86;64.70;100037.81;4995530;28;45540;-68
2023/08/03 09:22:57;;;;;;;;;4.33;2.67;;;;;20.97;64.04;100042.56;4994274;28;45380;-70
2023/08/03 09:25:23;;;;;;;;;3.00;2.00;;;;;21.03;64.11;100044.91;4994493;28;46250;-68
2023/08/03 09:27:51;;;;;;;;;2.00;2.00;;;;;21.05;63.57;100048.34;4992589;28;45443;-67
2023/08/03 09:30:18;;;;;;;;;5.00;3.00;;;;;21.02;63.96;100056.47;4995573;28;45336;-69
2023/08/03 09:32:45;;;;;;;;;4.00;3.00;;;;;20.93;63.60;100035.69;4994385;28;45556;-66
2023/08/03 09:35:25;;;;;;;;;5.00;3.00;;;;;20.88;64.27;100040.38;4993615;28;46083;-65
2023/08/03 09:37:55;;;;;;;;;4.00;1.67;;;;;20.89;64.28;100058.06;4994103;28;45498;-70
2023/08/03 09:40:23;;;;;;;;;2.00;1.33;;;;;20.81;63.73;100052.28;4995078;28;45466;-69
2023/08/03 09:42:49;;;;;;;;;2.00;2.00;;;;;20.82;64.24;100057.53;4995516;28;45546;-67
2023/08/03 09:45:15;;;;;;;;;3.00;1.00;;;;;20.72;64.65;100046.50;4995080;28;47039;-65
2023/08/03 09:47:41;;;;;;;;;3.67;1.00;;;;;20.82;64.99;100062.00;4994286;28;45622;-70
2023/08/03 09:50:08;;;;;;;;;2.00;2.00;;;;;20.63;64.91;100009.72;4993692;28;45332;-74
2023/08/03 09:52:49;;;;;;;;;3.00;2.00;;;;;20.99;64.02;100053.13;4993351;28;46228;-65
2023/08/03 09:55:23;;;;;;;;;2.00;2.00;;;;;21.09;63.25;100049.03;4994190;28;45470;-71
2023/08/03 09:57:57;;;;;;;;;1.00;1.00;;;;;21.21;63.79;100058.19;4980922;28;45476;-70
2023/08/03 10:00:23;;;;;;;;;3.00;1.00;;;;;21.32;62.59;100063.81;4995951;28;45267;-67
2023/08/03 10:03:03;;;;;;;;;2.00;2.00;;;;;21.34;62.79;100062.78;4999054;28;45498;-69
2023/08/03 10:05:34;;;;;;;;;3.00;3.00;;;;;21.28;62.69;100064.91;4999604;28;45433;-70
2023/08/03 10:08:10;;;;;;;;;2.00;2.00;;;;;21.25;62.27;100059.75;4985573;28;45561;-68
2023/08/03 10:10:41;;;;;;;;;2.67;2.00;;;;;20.99;61.72;100038.00;4982657;28;45699;-71
2023/08/03 10:13:07;;;;;;;;;1.67;1.33;;;;;21.13;61.51;100075.44;4992130;28;45559;-67
2023/08/03 10:15:34;;;;;;;;;2.00;2.00;;;;;21.10;61.57;100064.94;4996671;28;45995;-70
2023/08/03 10:18:01;;;;;;;;;3.67;3.33;;;;;21.10;62.40;100064.09;4994629;28;45376;-69
2023/08/03 10:20:27;;;;;;;;;1.67;1.67;;;;;21.23;62.02;100085.59;4997600;28;45519;-70
2023/08/03 10:23:14;;;;;;;;;2.67;2.33;;;;;21.27;61.96;100073.84;4995978;28;45820;-68
2023/08/03 10:25:57;;;;;;;;;2.00;2.00;;;;;21.29;61.55;100087.97;4989447;28;46101;-68
2023/08/03 10:28:25;;;;;;;;;1.33;1.00;;;;;21.16;62.33;100072.59;4990368;28;45559;-70
2023/08/03 10:31:18;;;;;;;;;2.00;2.00;;;;;21.26;61.07;100091.66;4993150;28;45277;-70
2023/08/03 10:33:47;;;;;;;;;1.33;1.33;;;;;21.26;61.57;100099.63;4986540;28;45578;-69
2023/08/03 10:36:27;;;;;;;;;2.00;2.00;;;;;21.23;61.32;100110.41;4983245;28;45615;-71
2023/08/03 10:38:53;;;;;;;;;2.00;2.00;;;;;21.18;61.33;100110.66;4983687;28;45482;-69
2023/08/03 10:41:24;;;;;;;;;4.00;2.00;;;;;21.23;61.61;100110.41;4981877;28;45485;-72
2023/08/03 10:44:14;;;;;;;;;2.00;2.00;;;;;21.25;61.03;100113.88;4996442;28;45565;-74
2023/08/03 10:46:58;;;;;;;;;2.00;2.00;;;;;21.28;60.71;100111.03;4983594;28;45467;-68
2023/08/03 10:49:24;;;;;;;;;1.00;1.00;;;;;21.36;60.97;100110.66;4982016;28;45513;-73
2023/08/03 10:51:51;;;;;;;;;4.00;2.00;;;;;21.34;61.40;100113.41;4994699;28;45557;-68
2023/08/03 10:54:18;;;;;;;;;4.33;1.00;;;;;21.38;61.50;100106.13;5000235;28;45551;-68
2023/08/03 10:57:06;;;;;;;;;2.67;1.67;;;;;21.54;61.26;100109.69;4999400;28;46293;-69
2023/08/03 10:59:38;;;;;;;;;3.00;1.50;;;;;21.62;60.87;100119.06;4999661;28;45598;-66
2023/08/03 11:02:22;;;;;;;;;3.00;3.00;;;;;21.67;61.06;100128.56;4999585;28;45430;-72
2023/08/03 11:04:52;;;;;;;;;1.00;1.00;;;;;21.73;60.49;100128.22;4999403;28;45352;-71
2023/08/03 11:07:22;;;;;;;;;3.00;2.00;;;;;21.51;59.93;100095.69;4999018;28;45579;-71
2023/08/03 11:09:49;;;;;;;;;2.33;1.33;;;;;21.62;60.26;100117.31;4998367;28;45448;-71
2023/08/03 11:12:16;;;;;;;;;2.00;2.00;;;;;21.70;59.80;100119.53;4999295;28;45468;-73
2023/08/03 11:14:44;;;;;;;;;4.33;1.67;;;;;21.70;60.01;100127.53;5000321;28;45356;-73
2023/08/03 11:17:13;;;;;;;;;4.67;2.00;;;;;21.70;59.74;100131.06;5000485;28;46613;-78
2023/08/03 11:19:39;;;;;;;;;1.00;1.00;;;;;21.44;59.91;100095.16;5000780;28;45427;-72
2023/08/03 11:22:05;;;;;;;;;3.50;1.75;;;;;21.58;60.12;100123.72;5001375;28;45394;-70
2023/08/03 11:24:32;;;;;;;;;2.00;2.00;;;;;21.51;59.95;100127.66;5002485;28;45472;-80
2023/08/03 11:26:59;;;;;;;;;1.00;1.00;;;;;21.38;60.07;100106.13;5004072;28;45467;-76
2023/08/03 11:29:25;;;;;;;;;3.00;3.00;;;;;21.46;60.34;100135.91;5002321;28;45478;-82
2023/08/03 11:31:51;;;;;;;;;3.33;2.00;;;;;21.49;60.44;100142.88;5001715;28;45337;-81
2023/08/03 11:34:18;;;;;;;;;2.00;2.00;;;;;21.35;59.88;100132.91;4999357;28;45217;-70
2023/08/03 11:36:48;;;;;;;;;2.00;2.00;;;;;21.44;59.71;100155.56;4999200;28;46174;-76